sensor_id;sensor_type;location;lat;lon;timestamp;P1;durP1;ratioP1;P2;durP2;ratioP2
22924;SDS011;11628;51.072;3.712;2022-08-19T00:00:36;40.58;;;34.35;;
22924;SDS011;11628;51.072;3.712;2022-08-19T00:03:03;36.83;;;32.22;;
22924;SDS011;11628;51.072;3.712;2022-08-19T00:05:29;38.92;;;34.70;;
22924;SDS011;11628;51.072;3.712;2022-08-19T00:07:55;40.03;;;35.13;;
22924;SDS011;11628;51.072;3.712;2022-08-19T00:10:21;36.67;;;32.00;;
22924;SDS011;11628;51.072;3.712;2022-08-19T00:12:48;29.35;;;26.33;;
22924;SDS011;11628;51.072;3.712;2022-08-19T00:15:15;40.42;;;33.47;;
22924;SDS011;11628;51.072;3.712;2022-08-19T00:17:44;38.78;;;34.20;;
22924;SDS011;11628;51.072;3.712;2022-08-19T00:20:12;39.78;;;33.83;;
22924;SDS011;11628;51.072;3.712;2022-08-19T00:22:42;38.80;;;34.13;;
22924;SDS011;11628;51.072;3.712;2022-08-19T00:25:09;42.35;;;36.20;;
22924;SDS011;11628;51.072;3.712;2022-08-19T00:27:34;33.45;;;29.20;;
22924;SDS011;11628;51.072;3.712;2022-08-19T00:30:00;39.58;;;33.50;;
22924;SDS011;11628;51.072;3.712;2022-08-19T00:32:28;40.33;;;35.22;;
22924;SDS011;11628;51.072;3.712;2022-08-19T00:34:54;39.25;;;34.92;;
22924;SDS011;11628;51.072;3.712;2022-08-19T00:37:21;35.35;;;31.15;;
22924;SDS011;11628;51.072;3.712;2022-08-19T00:39:48;38.90;;;33.15;;
22924;SDS011;11628;51.072;3.712;2022-08-19T00:42:16;38.17;;;33.22;;
22924;SDS011;11628;51.072;3.712;2022-08-19T00:44:42;38.97;;;34.22;;
22924;SDS011;11628;51.072;3.712;2022-08-19T00:47:08;41.40;;;34.80;;
22924;SDS011;11628;51.072;3.712;2022-08-19T00:49:36;38.00;;;33.70;;
22924;SDS011;11628;51.072;3.712;2022-08-19T00:52:07;43.72;;;36.28;;
22924;SDS011;11628;51.072;3.712;2022-08-19T00:54:37;37.13;;;32.50;;
22924;SDS011;11628;51.072;3.712;2022-08-19T00:57:05;36.03;;;30.40;;
22924;SDS011;11628;51.072;3.712;2022-08-19T00:59:34;35.63;;;29.83;;
22924;SDS011;11628;51.072;3.712;2022-08-19T01:02:02;36.25;;;30.83;;
22924;SDS011;11628;51.072;3.712;2022-08-19T01:04:28;34.50;;;30.65;;
22924;SDS011;11628;51.072;3.712;2022-08-19T01:06:54;37.72;;;31.02;;
22924;SDS011;11628;51.072;3.712;2022-08-19T01:09:21;39.10;;;32.03;;
22924;SDS011;11628;51.072;3.712;2022-08-19T01:11:47;34.80;;;30.42;;
22924;SDS011;11628;51.072;3.712;2022-08-19T01:14:14;36.97;;;30.80;;
22924;SDS011;11628;51.072;3.712;2022-08-19T01:16:42;34.80;;;28.10;;
22924;SDS011;11628;51.072;3.712;2022-08-19T01:19:11;36.20;;;29.27;;
22924;SDS011;11628;51.072;3.712;2022-08-19T01:21:45;29.85;;;26.65;;
22924;SDS011;11628;51.072;3.712;2022-08-19T01:33:27;33.13;;;27.42;;
22924;SDS011;11628;51.072;3.712;2022-08-19T01:35:52;30.35;;;26.08;;
22924;SDS011;11628;51.072;3.712;2022-08-19T01:38:26;31.58;;;26.05;;
22924;SDS011;11628;51.072;3.712;2022-08-19T01:40:56;31.55;;;27.13;;
22924;SDS011;11628;51.072;3.712;2022-08-19T01:43:23;30.17;;;26.65;;
22924;SDS011;11628;51.072;3.712;2022-08-19T01:45:49;32.10;;;26.40;;
22924;SDS011;11628;51.072;3.712;2022-08-19T01:48:16;38.20;;;28.92;;
22924;SDS011;11628;51.072;3.712;2022-08-19T01:50:41;34.38;;;28.50;;
22924;SDS011;11628;51.072;3.712;2022-08-19T01:53:09;35.38;;;28.38;;
22924;SDS011;11628;51.072;3.712;2022-08-19T01:55:38;30.50;;;26.30;;
22924;SDS011;11628;51.072;3.712;2022-08-19T01:58:07;29.52;;;26.33;;
22924;SDS011;11628;51.072;3.712;2022-08-19T02:00:39;32.33;;;26.27;;
22924;SDS011;11628;51.072;3.712;2022-08-19T02:03:05;34.00;;;25.10;;
22924;SDS011;11628;51.072;3.712;2022-08-19T02:05:31;31.67;;;24.55;;
22924;SDS011;11628;51.072;3.712;2022-08-19T02:07:57;26.52;;;22.55;;
22924;SDS011;11628;51.072;3.712;2022-08-19T02:10:24;31.08;;;24.23;;
22924;SDS011;11628;51.072;3.712;2022-08-19T02:12:50;32.25;;;25.02;;
22924;SDS011;11628;51.072;3.712;2022-08-19T02:15:17;29.63;;;24.92;;
22924;SDS011;11628;51.072;3.712;2022-08-19T02:17:44;28.27;;;22.75;;
22924;SDS011;11628;51.072;3.712;2022-08-19T02:20:11;28.80;;;23.10;;
22924;SDS011;11628;51.072;3.712;2022-08-19T02:22:38;32.78;;;23.27;;
22924;SDS011;11628;51.072;3.712;2022-08-19T02:25:06;30.70;;;22.25;;
22924;SDS011;11628;51.072;3.712;2022-08-19T02:27:32;27.75;;;22.77;;
22924;SDS011;11628;51.072;3.712;2022-08-19T02:29:58;25.98;;;21.55;;
22924;SDS011;11628;51.072;3.712;2022-08-19T02:32:24;29.83;;;23.55;;
22924;SDS011;11628;51.072;3.712;2022-08-19T02:34:50;27.00;;;22.25;;
22924;SDS011;11628;51.072;3.712;2022-08-19T02:37:16;30.85;;;23.20;;
22924;SDS011;11628;51.072;3.712;2022-08-19T02:40:00;27.30;;;20.77;;
22924;SDS011;11628;51.072;3.712;2022-08-19T02:42:26;28.30;;;22.10;;
22924;SDS011;11628;51.072;3.712;2022-08-19T02:44:52;29.23;;;20.65;;
22924;SDS011;11628;51.072;3.712;2022-08-19T02:47:20;25.38;;;19.33;;
22924;SDS011;11628;51.072;3.712;2022-08-19T02:49:46;28.77;;;21.30;;
22924;SDS011;11628;51.072;3.712;2022-08-19T02:52:14;27.50;;;20.52;;
22924;SDS011;11628;51.072;3.712;2022-08-19T02:54:40;24.80;;;19.52;;
22924;SDS011;11628;51.072;3.712;2022-08-19T02:57:06;28.30;;;20.45;;
22924;SDS011;11628;51.072;3.712;2022-08-19T02:59:32;28.75;;;21.77;;
22924;SDS011;11628;51.072;3.712;2022-08-19T03:01:59;33.72;;;23.25;;
22924;SDS011;11628;51.072;3.712;2022-08-19T03:04:25;28.65;;;22.13;;
22924;SDS011;11628;51.072;3.712;2022-08-19T03:06:51;29.55;;;23.15;;
22924;SDS011;11628;51.072;3.712;2022-08-19T03:09:17;32.03;;;23.35;;
22924;SDS011;11628;51.072;3.712;2022-08-19T03:11:44;29.83;;;22.50;;
22924;SDS011;11628;51.072;3.712;2022-08-19T03:14:10;30.13;;;22.15;;
22924;SDS011;11628;51.072;3.712;2022-08-19T03:16:44;30.42;;;23.70;;
22924;SDS011;11628;51.072;3.712;2022-08-19T03:19:13;30.38;;;22.88;;
22924;SDS011;11628;51.072;3.712;2022-08-19T03:21:41;30.80;;;23.75;;
22924;SDS011;11628;51.072;3.712;2022-08-19T03:24:09;30.92;;;24.83;;
22924;SDS011;11628;51.072;3.712;2022-08-19T03:26:39;28.02;;;22.63;;
22924;SDS011;11628;51.072;3.712;2022-08-19T03:29:08;28.90;;;21.98;;
22924;SDS011;11628;51.072;3.712;2022-08-19T03:31:35;28.25;;;22.77;;
22924;SDS011;11628;51.072;3.712;2022-08-19T03:34:01;28.05;;;22.45;;
22924;SDS011;11628;51.072;3.712;2022-08-19T03:36:27;30.30;;;20.98;;
22924;SDS011;11628;51.072;3.712;2022-08-19T03:38:54;27.27;;;21.15;;
22924;SDS011;11628;51.072;3.712;2022-08-19T03:41:29;23.75;;;18.67;;
22924;SDS011;11628;51.072;3.712;2022-08-19T03:43:56;22.80;;;18.30;;
22924;SDS011;11628;51.072;3.712;2022-08-19T03:46:24;27.40;;;20.08;;
22924;SDS011;11628;51.072;3.712;2022-08-19T03:48:53;22.40;;;19.45;;
22924;SDS011;11628;51.072;3.712;2022-08-19T03:51:24;23.55;;;18.60;;
22924;SDS011;11628;51.072;3.712;2022-08-19T03:53:50;21.58;;;18.23;;
22924;SDS011;11628;51.072;3.712;2022-08-19T03:56:17;24.92;;;19.10;;
22924;SDS011;11628;51.072;3.712;2022-08-19T03:58:43;25.80;;;17.67;;
22924;SDS011;11628;51.072;3.712;2022-08-19T04:01:10;26.13;;;19.30;;
22924;SDS011;11628;51.072;3.712;2022-08-19T04:03:38;25.60;;;19.27;;
22924;SDS011;11628;51.072;3.712;2022-08-19T04:06:11;22.05;;;17.42;;
22924;SDS011;11628;51.072;3.712;2022-08-19T04:08:42;23.50;;;18.63;;
22924;SDS011;11628;51.072;3.712;2022-08-19T04:11:10;25.20;;;19.27;;
22924;SDS011;11628;51.072;3.712;2022-08-19T04:13:38;26.67;;;18.08;;
22924;SDS011;11628;51.072;3.712;2022-08-19T04:16:04;28.08;;;18.88;;
22924;SDS011;11628;51.072;3.712;2022-08-19T04:18:31;22.65;;;17.40;;
22924;SDS011;11628;51.072;3.712;2022-08-19T04:21:00;23.48;;;17.13;;
22924;SDS011;11628;51.072;3.712;2022-08-19T04:23:26;24.15;;;17.35;;
22924;SDS011;11628;51.072;3.712;2022-08-19T04:25:53;23.73;;;16.77;;
22924;SDS011;11628;51.072;3.712;2022-08-19T04:28:19;23.17;;;17.08;;
22924;SDS011;11628;51.072;3.712;2022-08-19T04:30:46;20.38;;;16.48;;
22924;SDS011;11628;51.072;3.712;2022-08-19T04:33:15;21.77;;;16.52;;
22924;SDS011;11628;51.072;3.712;2022-08-19T04:35:46;17.00;;;15.25;;
22924;SDS011;11628;51.072;3.712;2022-08-19T04:38:14;24.58;;;16.85;;
22924;SDS011;11628;51.072;3.712;2022-08-19T04:40:42;23.17;;;16.33;;
22924;SDS011;11628;51.072;3.712;2022-08-19T04:43:31;22.77;;;16.35;;
22924;SDS011;11628;51.072;3.712;2022-08-19T04:45:58;24.33;;;15.13;;
22924;SDS011;11628;51.072;3.712;2022-08-19T04:48:30;24.67;;;16.38;;
22924;SDS011;11628;51.072;3.712;2022-08-19T04:50:56;24.75;;;17.13;;
22924;SDS011;11628;51.072;3.712;2022-08-19T04:53:25;24.40;;;18.35;;
22924;SDS011;11628;51.072;3.712;2022-08-19T04:55:53;21.48;;;16.02;;
22924;SDS011;11628;51.072;3.712;2022-08-19T04:58:23;18.00;;;14.35;;
22924;SDS011;11628;51.072;3.712;2022-08-19T05:00:51;22.00;;;16.55;;
22924;SDS011;11628;51.072;3.712;2022-08-19T05:03:18;19.30;;;15.43;;
22924;SDS011;11628;51.072;3.712;2022-08-19T05:05:44;20.90;;;15.50;;
22924;SDS011;11628;51.072;3.712;2022-08-19T05:08:13;20.08;;;14.77;;
22924;SDS011;11628;51.072;3.712;2022-08-19T05:10:44;22.30;;;15.20;;
22924;SDS011;11628;51.072;3.712;2022-08-19T05:13:14;20.60;;;14.48;;
22924;SDS011;11628;51.072;3.712;2022-08-19T05:15:41;24.05;;;15.65;;
22924;SDS011;11628;51.072;3.712;2022-08-19T05:18:07;18.83;;;14.35;;
22924;SDS011;11628;51.072;3.712;2022-08-19T05:20:52;21.95;;;15.32;;
22924;SDS011;11628;51.072;3.712;2022-08-19T05:23:37;20.65;;;14.85;;
22924;SDS011;11628;51.072;3.712;2022-08-19T05:26:03;21.63;;;14.27;;
22924;SDS011;11628;51.072;3.712;2022-08-19T05:28:29;19.15;;;14.90;;
22924;SDS011;11628;51.072;3.712;2022-08-19T05:30:55;21.75;;;14.13;;
22924;SDS011;11628;51.072;3.712;2022-08-19T05:33:21;20.75;;;14.15;;
22924;SDS011;11628;51.072;3.712;2022-08-19T05:35:48;17.63;;;13.00;;
22924;SDS011;11628;51.072;3.712;2022-08-19T05:38:15;19.10;;;13.80;;
22924;SDS011;11628;51.072;3.712;2022-08-19T05:40:42;19.10;;;14.88;;
22924;SDS011;11628;51.072;3.712;2022-08-19T05:43:11;16.27;;;13.18;;
22924;SDS011;11628;51.072;3.712;2022-08-19T05:45:41;24.77;;;14.48;;
22924;SDS011;11628;51.072;3.712;2022-08-19T05:48:07;22.45;;;14.57;;
22924;SDS011;11628;51.072;3.712;2022-08-19T05:50:38;23.55;;;15.55;;
22924;SDS011;11628;51.072;3.712;2022-08-19T05:53:05;20.73;;;14.18;;
22924;SDS011;11628;51.072;3.712;2022-08-19T05:55:31;19.70;;;14.05;;
22924;SDS011;11628;51.072;3.712;2022-08-19T05:57:57;26.33;;;15.93;;
22924;SDS011;11628;51.072;3.712;2022-08-19T06:00:23;25.80;;;15.80;;
22924;SDS011;11628;51.072;3.712;2022-08-19T06:02:49;17.55;;;13.07;;
22924;SDS011;11628;51.072;3.712;2022-08-19T06:05:16;22.17;;;17.05;;
22924;SDS011;11628;51.072;3.712;2022-08-19T06:07:41;23.38;;;15.35;;
22924;SDS011;11628;51.072;3.712;2022-08-19T06:10:09;25.08;;;17.05;;
22924;SDS011;11628;51.072;3.712;2022-08-19T06:12:36;23.17;;;15.15;;
22924;SDS011;11628;51.072;3.712;2022-08-19T06:15:03;23.23;;;16.75;;
22924;SDS011;11628;51.072;3.712;2022-08-19T06:17:31;23.50;;;16.85;;
22924;SDS011;11628;51.072;3.712;2022-08-19T06:19:57;22.65;;;15.85;;
22924;SDS011;11628;51.072;3.712;2022-08-19T06:22:23;21.15;;;15.30;;
22924;SDS011;11628;51.072;3.712;2022-08-19T06:24:49;20.05;;;14.45;;
22924;SDS011;11628;51.072;3.712;2022-08-19T06:27:17;21.77;;;15.65;;
22924;SDS011;11628;51.072;3.712;2022-08-19T06:29:43;23.70;;;15.07;;
22924;SDS011;11628;51.072;3.712;2022-08-19T06:32:11;18.25;;;14.50;;
22924;SDS011;11628;51.072;3.712;2022-08-19T06:34:39;20.63;;;16.13;;
22924;SDS011;11628;51.072;3.712;2022-08-19T06:37:06;21.30;;;15.13;;
22924;SDS011;11628;51.072;3.712;2022-08-19T06:39:34;20.88;;;14.80;;
22924;SDS011;11628;51.072;3.712;2022-08-19T06:42:03;17.73;;;14.18;;
22924;SDS011;11628;51.072;3.712;2022-08-19T06:44:33;18.15;;;14.30;;
22924;SDS011;11628;51.072;3.712;2022-08-19T06:47:02;17.50;;;14.32;;
22924;SDS011;11628;51.072;3.712;2022-08-19T06:49:29;16.23;;;12.48;;
22924;SDS011;11628;51.072;3.712;2022-08-19T06:51:58;15.07;;;13.02;;
22924;SDS011;11628;51.072;3.712;2022-08-19T06:54:25;16.95;;;12.60;;
22924;SDS011;11628;51.072;3.712;2022-08-19T06:56:54;16.17;;;13.35;;
22924;SDS011;11628;51.072;3.712;2022-08-19T06:59:22;15.15;;;12.23;;
22924;SDS011;11628;51.072;3.712;2022-08-19T07:01:55;16.15;;;12.40;;
22924;SDS011;11628;51.072;3.712;2022-08-19T07:04:24;13.25;;;11.63;;
22924;SDS011;11628;51.072;3.712;2022-08-19T07:06:56;17.50;;;12.13;;
22924;SDS011;11628;51.072;3.712;2022-08-19T07:09:33;20.55;;;12.68;;
22924;SDS011;11628;51.072;3.712;2022-08-19T07:12:01;17.02;;;12.98;;
22924;SDS011;11628;51.072;3.712;2022-08-19T07:14:28;19.58;;;14.10;;
22924;SDS011;11628;51.072;3.712;2022-08-19T07:16:54;18.98;;;14.05;;
22924;SDS011;11628;51.072;3.712;2022-08-19T07:19:22;14.32;;;12.85;;
22924;SDS011;11628;51.072;3.712;2022-08-19T07:21:51;15.45;;;13.48;;
22924;SDS011;11628;51.072;3.712;2022-08-19T07:24:21;14.65;;;13.10;;
22924;SDS011;11628;51.072;3.712;2022-08-19T07:26:49;16.38;;;14.25;;
22924;SDS011;11628;51.072;3.712;2022-08-19T07:29:17;16.13;;;13.95;;
22924;SDS011;11628;51.072;3.712;2022-08-19T07:31:43;18.63;;;16.10;;
22924;SDS011;11628;51.072;3.712;2022-08-19T07:34:10;16.60;;;13.93;;
22924;SDS011;11628;51.072;3.712;2022-08-19T07:36:39;16.25;;;14.60;;
22924;SDS011;11628;51.072;3.712;2022-08-19T07:39:29;16.52;;;14.80;;
22924;SDS011;11628;51.072;3.712;2022-08-19T07:41:55;17.15;;;14.82;;
22924;SDS011;11628;51.072;3.712;2022-08-19T07:44:22;17.65;;;15.35;;
22924;SDS011;11628;51.072;3.712;2022-08-19T07:46:50;16.95;;;15.40;;
22924;SDS011;11628;51.072;3.712;2022-08-19T07:49:18;19.70;;;15.48;;
22924;SDS011;11628;51.072;3.712;2022-08-19T07:51:45;20.67;;;15.98;;
22924;SDS011;11628;51.072;3.712;2022-08-19T07:54:12;18.20;;;16.33;;
22924;SDS011;11628;51.072;3.712;2022-08-19T07:56:38;22.25;;;15.98;;
22924;SDS011;11628;51.072;3.712;2022-08-19T07:59:04;17.52;;;14.93;;
22924;SDS011;11628;51.072;3.712;2022-08-19T08:01:30;15.07;;;13.48;;
22924;SDS011;11628;51.072;3.712;2022-08-19T08:03:56;17.83;;;16.05;;
22924;SDS011;11628;51.072;3.712;2022-08-19T08:06:42;18.88;;;16.42;;
22924;SDS011;11628;51.072;3.712;2022-08-19T08:09:28;20.80;;;15.75;;
22924;SDS011;11628;51.072;3.712;2022-08-19T08:12:00;17.90;;;14.73;;
22924;SDS011;11628;51.072;3.712;2022-08-19T08:14:50;17.88;;;15.18;;
22924;SDS011;11628;51.072;3.712;2022-08-19T08:17:20;18.02;;;14.80;;
22924;SDS011;11628;51.072;3.712;2022-08-19T08:19:47;18.23;;;15.18;;
22924;SDS011;11628;51.072;3.712;2022-08-19T08:22:16;17.50;;;15.05;;
22924;SDS011;11628;51.072;3.712;2022-08-19T08:25:21;17.50;;;15.02;;
22924;SDS011;11628;51.072;3.712;2022-08-19T08:27:48;15.98;;;14.20;;
22924;SDS011;11628;51.072;3.712;2022-08-19T08:30:19;18.15;;;13.07;;
22924;SDS011;11628;51.072;3.712;2022-08-19T08:32:47;16.25;;;13.20;;
22924;SDS011;11628;51.072;3.712;2022-08-19T08:35:14;16.40;;;14.30;;
22924;SDS011;11628;51.072;3.712;2022-08-19T08:37:42;16.10;;;14.13;;
22924;SDS011;11628;51.072;3.712;2022-08-19T08:40:19;16.60;;;14.15;;
22924;SDS011;11628;51.072;3.712;2022-08-19T08:43:03;19.38;;;14.57;;
22924;SDS011;11628;51.072;3.712;2022-08-19T08:51:09;16.00;;;14.38;;
22924;SDS011;11628;51.072;3.712;2022-08-19T08:53:40;14.70;;;13.00;;
22924;SDS011;11628;51.072;3.712;2022-08-19T08:56:08;14.40;;;13.07;;
22924;SDS011;11628;51.072;3.712;2022-08-19T09:01:10;11.98;;;10.85;;
22924;SDS011;11628;51.072;3.712;2022-08-19T09:03:37;12.18;;;10.98;;
22924;SDS011;11628;51.072;3.712;2022-08-19T09:11:48;10.65;;;9.55;;
22924;SDS011;11628;51.072;3.712;2022-08-19T09:17:07;12.75;;;9.90;;
22924;SDS011;11628;51.072;3.712;2022-08-19T09:19:55;9.23;;;8.18;;
22924;SDS011;11628;51.072;3.712;2022-08-19T09:22:26;7.38;;;6.75;;
22924;SDS011;11628;51.072;3.712;2022-08-19T09:24:52;7.65;;;6.95;;
22924;SDS011;11628;51.072;3.712;2022-08-19T09:27:21;7.00;;;6.13;;
22924;SDS011;11628;51.072;3.712;2022-08-19T09:29:49;6.20;;;5.60;;
22924;SDS011;11628;51.072;3.712;2022-08-19T09:32:15;8.18;;;5.82;;
22924;SDS011;11628;51.072;3.712;2022-08-19T09:34:43;7.68;;;5.60;;
22924;SDS011;11628;51.072;3.712;2022-08-19T09:37:09;8.73;;;5.60;;
22924;SDS011;11628;51.072;3.712;2022-08-19T09:39:35;7.28;;;5.00;;
22924;SDS011;11628;51.072;3.712;2022-08-19T09:42:01;5.72;;;4.78;;
22924;SDS011;11628;51.072;3.712;2022-08-19T09:44:28;4.80;;;4.20;;
22924;SDS011;11628;51.072;3.712;2022-08-19T09:46:54;8.52;;;3.53;;
22924;SDS011;11628;51.072;3.712;2022-08-19T09:49:21;4.50;;;3.92;;
22924;SDS011;11628;51.072;3.712;2022-08-19T09:51:50;4.50;;;3.80;;
22924;SDS011;11628;51.072;3.712;2022-08-19T09:54:20;3.88;;;3.55;;
22924;SDS011;11628;51.072;3.712;2022-08-19T09:56:45;3.83;;;3.53;;
22924;SDS011;11628;51.072;3.712;2022-08-19T09:59:11;4.45;;;3.30;;
22924;SDS011;11628;51.072;3.712;2022-08-19T10:01:37;4.68;;;2.92;;
22924;SDS011;11628;51.072;3.712;2022-08-19T10:04:03;4.78;;;2.90;;
22924;SDS011;11628;51.072;3.712;2022-08-19T10:06:34;5.13;;;3.30;;
22924;SDS011;11628;51.072;3.712;2022-08-19T10:09:02;3.70;;;2.60;;
22924;SDS011;11628;51.072;3.712;2022-08-19T10:11:31;4.60;;;2.35;;
22924;SDS011;11628;51.072;3.712;2022-08-19T10:13:57;22.58;;;15.90;;
22924;SDS011;11628;51.072;3.712;2022-08-19T10:16:23;50.60;;;31.38;;
22924;SDS011;11628;51.072;3.712;2022-08-19T10:18:50;9.52;;;8.50;;
22924;SDS011;11628;51.072;3.712;2022-08-19T10:21:21;4.45;;;3.15;;
22924;SDS011;11628;51.072;3.712;2022-08-19T10:23:55;3.33;;;2.63;;
22924;SDS011;11628;51.072;3.712;2022-08-19T10:26:28;4.85;;;2.70;;
22924;SDS011;11628;51.072;3.712;2022-08-19T10:29:02;3.60;;;2.25;;
22924;SDS011;11628;51.072;3.712;2022-08-19T10:31:30;4.05;;;2.95;;
22924;SDS011;11628;51.072;3.712;2022-08-19T10:33:58;4.10;;;2.45;;
22924;SDS011;11628;51.072;3.712;2022-08-19T10:36:28;4.85;;;2.42;;
22924;SDS011;11628;51.072;3.712;2022-08-19T10:38:57;4.40;;;2.47;;
22924;SDS011;11628;51.072;3.712;2022-08-19T10:41:27;4.50;;;2.47;;
22924;SDS011;11628;51.072;3.712;2022-08-19T10:43:55;4.22;;;3.20;;
22924;SDS011;11628;51.072;3.712;2022-08-19T10:46:24;3.88;;;2.55;;
22924;SDS011;11628;51.072;3.712;2022-08-19T10:48:52;3.53;;;2.47;;
22924;SDS011;11628;51.072;3.712;2022-08-19T10:51:18;4.50;;;2.78;;
22924;SDS011;11628;51.072;3.712;2022-08-19T10:54:03;4.95;;;3.20;;
22924;SDS011;11628;51.072;3.712;2022-08-19T10:56:29;5.38;;;4.20;;
22924;SDS011;11628;51.072;3.712;2022-08-19T10:59:15;4.50;;;3.78;;
22924;SDS011;11628;51.072;3.712;2022-08-19T11:01:44;10.65;;;4.80;;
22924;SDS011;11628;51.072;3.712;2022-08-19T11:04:10;5.65;;;4.72;;
22924;SDS011;11628;51.072;3.712;2022-08-19T11:06:38;5.57;;;4.35;;
22924;SDS011;11628;51.072;3.712;2022-08-19T11:09:06;5.10;;;3.95;;
22924;SDS011;11628;51.072;3.712;2022-08-19T11:11:33;5.15;;;4.68;;
22924;SDS011;11628;51.072;3.712;2022-08-19T11:14:10;4.15;;;3.75;;
22924;SDS011;11628;51.072;3.712;2022-08-19T11:19:34;5.05;;;4.50;;
22924;SDS011;11628;51.072;3.712;2022-08-19T11:22:00;5.13;;;4.72;;
22924;SDS011;11628;51.072;3.712;2022-08-19T11:24:29;6.03;;;5.43;;
22924;SDS011;11628;51.072;3.712;2022-08-19T11:27:04;6.03;;;5.43;;
22924;SDS011;11628;51.072;3.712;2022-08-19T11:29:32;5.60;;;4.57;;
22924;SDS011;11628;51.072;3.712;2022-08-19T11:31:59;6.00;;;5.55;;
22924;SDS011;11628;51.072;3.712;2022-08-19T11:34:28;6.68;;;5.05;;
22924;SDS011;11628;51.072;3.712;2022-08-19T11:36:54;4.68;;;4.25;;
22924;SDS011;11628;51.072;3.712;2022-08-19T11:39:27;5.38;;;4.10;;
22924;SDS011;11628;51.072;3.712;2022-08-19T11:41:55;8.35;;;4.15;;
22924;SDS011;11628;51.072;3.712;2022-08-19T11:44:23;4.20;;;3.40;;
22924;SDS011;11628;51.072;3.712;2022-08-19T11:46:50;4.70;;;3.00;;
22924;SDS011;11628;51.072;3.712;2022-08-19T11:49:17;4.30;;;3.40;;
22924;SDS011;11628;51.072;3.712;2022-08-19T11:51:44;4.80;;;3.35;;
22924;SDS011;11628;51.072;3.712;2022-08-19T11:57:32;4.03;;;3.00;;
22924;SDS011;11628;51.072;3.712;2022-08-19T11:59:57;4.20;;;3.20;;
22924;SDS011;11628;51.072;3.712;2022-08-19T12:02:23;3.95;;;2.70;;
22924;SDS011;11628;51.072;3.712;2022-08-19T12:04:49;3.47;;;2.65;;
22924;SDS011;11628;51.072;3.712;2022-08-19T12:07:15;4.10;;;3.80;;
22924;SDS011;11628;51.072;3.712;2022-08-19T12:09:40;4.28;;;3.50;;
22924;SDS011;11628;51.072;3.712;2022-08-19T12:12:06;4.57;;;3.92;;
22924;SDS011;11628;51.072;3.712;2022-08-19T12:14:33;4.78;;;4.38;;
22924;SDS011;11628;51.072;3.712;2022-08-19T12:16:59;5.22;;;4.40;;
22924;SDS011;11628;51.072;3.712;2022-08-19T12:19:25;4.13;;;3.72;;
22924;SDS011;11628;51.072;3.712;2022-08-19T12:21:51;4.75;;;4.32;;
22924;SDS011;11628;51.072;3.712;2022-08-19T12:24:20;5.10;;;3.90;;
22924;SDS011;11628;51.072;3.712;2022-08-19T12:26:48;4.22;;;3.83;;
22924;SDS011;11628;51.072;3.712;2022-08-19T12:29:14;3.70;;;3.40;;
22924;SDS011;11628;51.072;3.712;2022-08-19T12:31:39;3.20;;;2.90;;
22924;SDS011;11628;51.072;3.712;2022-08-19T12:34:05;5.13;;;2.95;;
22924;SDS011;11628;51.072;3.712;2022-08-19T12:36:32;5.22;;;3.00;;
22924;SDS011;11628;51.072;3.712;2022-08-19T12:38:58;5.68;;;2.50;;
22924;SDS011;11628;51.072;3.712;2022-08-19T12:41:27;2.95;;;2.65;;
22924;SDS011;11628;51.072;3.712;2022-08-19T12:43:52;3.22;;;2.88;;
22924;SDS011;11628;51.072;3.712;2022-08-19T12:46:18;3.38;;;2.83;;
22924;SDS011;11628;51.072;3.712;2022-08-19T12:48:45;3.20;;;2.45;;
22924;SDS011;11628;51.072;3.712;2022-08-19T12:51:15;3.20;;;2.50;;
22924;SDS011;11628;51.072;3.712;2022-08-19T12:53:43;2.50;;;1.85;;
22924;SDS011;11628;51.072;3.712;2022-08-19T12:56:09;4.32;;;1.73;;
22924;SDS011;11628;51.072;3.712;2022-08-19T12:58:36;2.95;;;1.70;;
22924;SDS011;11628;51.072;3.712;2022-08-19T13:01:06;2.78;;;1.40;;
22924;SDS011;11628;51.072;3.712;2022-08-19T13:03:35;2.30;;;1.45;;
22924;SDS011;11628;51.072;3.712;2022-08-19T13:06:01;2.13;;;1.30;;
22924;SDS011;11628;51.072;3.712;2022-08-19T13:08:27;2.10;;;1.45;;
22924;SDS011;11628;51.072;3.712;2022-08-19T13:10:53;3.10;;;1.30;;
22924;SDS011;11628;51.072;3.712;2022-08-19T13:13:19;1.98;;;1.30;;
22924;SDS011;11628;51.072;3.712;2022-08-19T13:15:45;3.33;;;1.70;;
22924;SDS011;11628;51.072;3.712;2022-08-19T13:18:11;3.13;;;1.50;;
22924;SDS011;11628;51.072;3.712;2022-08-19T13:20:37;4.57;;;1.80;;
22924;SDS011;11628;51.072;3.712;2022-08-19T13:23:05;8.80;;;3.50;;
22924;SDS011;11628;51.072;3.712;2022-08-19T13:25:31;11.40;;;3.60;;
22924;SDS011;11628;51.072;3.712;2022-08-19T13:27:58;8.82;;;4.13;;
22924;SDS011;11628;51.072;3.712;2022-08-19T13:30:25;8.88;;;3.58;;
22924;SDS011;11628;51.072;3.712;2022-08-19T13:33:09;10.40;;;3.22;;
22924;SDS011;11628;51.072;3.712;2022-08-19T13:35:35;7.60;;;2.40;;
22924;SDS011;11628;51.072;3.712;2022-08-19T13:38:22;6.78;;;3.22;;
22924;SDS011;11628;51.072;3.712;2022-08-19T13:40:49;5.97;;;1.55;;
22924;SDS011;11628;51.072;3.712;2022-08-19T13:43:17;2.92;;;1.88;;
22924;SDS011;11628;51.072;3.712;2022-08-19T13:45:44;4.22;;;1.45;;
22924;SDS011;11628;51.072;3.712;2022-08-19T13:48:10;4.03;;;2.00;;
22924;SDS011;11628;51.072;3.712;2022-08-19T13:50:40;4.93;;;2.40;;
22924;SDS011;11628;51.072;3.712;2022-08-19T13:53:09;6.43;;;2.23;;
22924;SDS011;11628;51.072;3.712;2022-08-19T13:55:40;7.60;;;2.65;;
22924;SDS011;11628;51.072;3.712;2022-08-19T13:58:07;4.63;;;3.28;;
22924;SDS011;11628;51.072;3.712;2022-08-19T14:00:35;7.15;;;3.40;;
22924;SDS011;11628;51.072;3.712;2022-08-19T14:03:03;7.75;;;4.32;;
22924;SDS011;11628;51.072;3.712;2022-08-19T14:05:30;6.65;;;4.47;;
22924;SDS011;11628;51.072;3.712;2022-08-19T14:07:57;5.90;;;4.80;;
22924;SDS011;11628;51.072;3.712;2022-08-19T14:10:23;5.15;;;3.92;;
22924;SDS011;11628;51.072;3.712;2022-08-19T14:12:53;4.53;;;4.13;;
22924;SDS011;11628;51.072;3.712;2022-08-19T14:15:20;4.90;;;4.15;;
22924;SDS011;11628;51.072;3.712;2022-08-19T14:17:48;6.10;;;5.50;;
22924;SDS011;11628;51.072;3.712;2022-08-19T14:20:14;6.07;;;5.57;;
22924;SDS011;11628;51.072;3.712;2022-08-19T14:22:41;6.75;;;6.15;;
22924;SDS011;11628;51.072;3.712;2022-08-19T14:25:08;8.20;;;7.30;;
22924;SDS011;11628;51.072;3.712;2022-08-19T14:27:36;9.20;;;7.65;;
22924;SDS011;11628;51.072;3.712;2022-08-19T14:30:04;6.72;;;5.63;;
22924;SDS011;11628;51.072;3.712;2022-08-19T14:32:31;8.27;;;7.22;;
22924;SDS011;11628;51.072;3.712;2022-08-19T14:34:57;9.02;;;6.22;;
22924;SDS011;11628;51.072;3.712;2022-08-19T14:37:23;6.78;;;5.53;;
22924;SDS011;11628;51.072;3.712;2022-08-19T14:39:49;7.47;;;5.22;;
22924;SDS011;11628;51.072;3.712;2022-08-19T14:42:14;7.72;;;5.10;;
22924;SDS011;11628;51.072;3.712;2022-08-19T14:44:41;6.30;;;4.40;;
22924;SDS011;11628;51.072;3.712;2022-08-19T14:47:07;8.02;;;4.32;;
22924;SDS011;11628;51.072;3.712;2022-08-19T14:49:33;6.60;;;4.82;;
22924;SDS011;11628;51.072;3.712;2022-08-19T14:51:59;6.03;;;4.13;;
22924;SDS011;11628;51.072;3.712;2022-08-19T14:54:25;5.53;;;4.28;;
22924;SDS011;11628;51.072;3.712;2022-08-19T14:56:51;7.07;;;4.20;;
22924;SDS011;11628;51.072;3.712;2022-08-19T14:59:17;6.32;;;4.65;;
22924;SDS011;11628;51.072;3.712;2022-08-19T15:01:43;5.57;;;4.45;;
22924;SDS011;11628;51.072;3.712;2022-08-19T15:04:09;8.13;;;4.60;;
22924;SDS011;11628;51.072;3.712;2022-08-19T15:06:35;6.18;;;4.32;;
22924;SDS011;11628;51.072;3.712;2022-08-19T15:09:02;5.82;;;4.32;;